createdAt,value
2023-05-02T00:01:53.426Z,82.94
2023-05-02T00:04:26.689Z,83.55
2023-05-02T00:07:06.683Z,83.80
2023-05-02T00:09:33.889Z,83.04
2023-05-02T00:27:30.396Z,82.96
2023-05-02T00:30:07.383Z,83.80
2023-05-02T00:32:37.278Z,83.90
2023-05-02T00:35:19.841Z,83.91
2023-05-02T00:37:47.192Z,83.90
2023-05-02T00:49:38.566Z,83.67
2023-05-02T00:55:08.393Z,83.36
2023-05-02T01:00:28.271Z,83.98
2023-05-02T01:03:34.559Z,83.77
2023-05-02T01:06:31.479Z,83.49
2023-05-02T01:09:33.073Z,82.95
2023-05-02T01:12:44.168Z,83.72
2023-05-02T01:15:22.879Z,83.17
2023-05-02T01:18:09.537Z,83.69
2023-05-02T01:20:43.552Z,83.71
2023-05-02T01:23:31.459Z,83.82
2023-05-02T01:29:38.502Z,84.07
2023-05-02T01:42:31.583Z,85.14
2023-05-02T01:45:26.560Z,85.27
2023-05-02T01:47:56.823Z,85.89
2023-05-02T01:53:41.249Z,86.38
2023-05-02T01:56:18.607Z,86.51
2023-05-02T02:06:16.219Z,85.79
2023-05-02T02:08:45.618Z,86.28
2023-05-02T02:18:08.624Z,87.23
2023-05-02T02:20:36.755Z,87.54
2023-05-02T02:23:15.523Z,87.40
2023-05-02T02:25:46.260Z,87.39
2023-05-02T02:28:38.005Z,87.20
2023-05-02T02:31:07.884Z,87.69
2023-05-02T02:39:48.644Z,87.18
2023-05-02T02:42:56.403Z,86.71
2023-05-02T02:45:49.114Z,86.88
2023-05-02T02:55:25.463Z,85.67
2023-05-02T02:58:32.432Z,85.48
2023-05-02T03:01:25.908Z,85.09
2023-05-02T03:04:04.537Z,85.34
2023-05-02T03:06:42.761Z,84.96
2023-05-02T03:09:22.257Z,83.80
2023-05-02T03:12:16.254Z,82.50
2023-05-02T03:15:37.110Z,81.76
2023-05-02T03:28:16.533Z,81.86
2023-05-02T03:30:44.802Z,81.93
2023-05-02T03:43:48.543Z,82.52
2023-05-02T03:46:30.472Z,82.63
2023-05-02T04:49:23.257Z,86.97
2023-05-02T04:51:52.271Z,87.53
2023-05-02T04:54:29.306Z,87.31
2023-05-02T04:56:56.460Z,87.57
2023-05-02T04:59:32.860Z,88.45
2023-05-02T05:05:58.857Z,88.98
2023-05-02T05:08:30.839Z,88.79
2023-05-02T05:11:20.335Z,89.33
2023-05-02T05:13:50.469Z,89.31
2023-05-02T05:29:53.254Z,88.77
2023-05-02T05:35:13.298Z,88.17
2023-05-02T05:37:52.563Z,88.11
2023-05-02T05:40:20.008Z,88.05
2023-05-02T05:49:12.813Z,88.01
2023-05-02T05:51:49.274Z,87.89
2023-05-02T05:54:24.173Z,87.73
2023-05-02T05:56:56.856Z,87.69
2023-05-02T05:59:34.961Z,88.07
2023-05-02T06:02:05.782Z,87.69
2023-05-02T06:07:22.011Z,87.20
2023-05-02T06:26:20.339Z,85.82
2023-05-02T06:28:49.608Z,85.52
2023-05-02T06:34:39.431Z,83.42
2023-05-02T06:53:23.249Z,80.18
2023-05-02T06:59:47.402Z,78.47
2023-05-02T07:17:42.149Z,74.06
2023-05-02T07:56:30.440Z,65.14
2023-05-02T08:16:09.362Z,60.46
2023-05-02T08:35:01.230Z,59.26
2023-05-02T08:45:36.483Z,58.81
2023-05-02T08:49:10.317Z,59.79
2023-05-02T08:55:42.361Z,56.94
2023-05-02T09:26:33.496Z,54.38
2023-05-02T09:35:17.361Z,53.25
2023-05-02T10:03:18.451Z,54.65
2023-05-02T10:05:56.120Z,52.01
2023-05-02T10:08:27.646Z,53.86
2023-05-02T10:17:40.462Z,50.25
2023-05-02T10:27:34.447Z,51.09
2023-05-02T10:30:19.341Z,53.14
2023-05-02T10:35:34.701Z,51.50
2023-05-02T10:38:11.572Z,53.59
2023-05-02T10:40:51.205Z,52.54
2023-05-02T10:43:21.292Z,51.98
2023-05-02T10:49:02.224Z,52.62
2023-05-02T10:55:05.432Z,52.67
2023-05-02T11:01:02.636Z,50.75
2023-05-02T11:03:55.860Z,49.89
2023-05-02T11:09:54.393Z,49.74
2023-05-02T11:12:57.834Z,49.85
2023-05-02T11:23:04.691Z,49.95
2023-05-02T11:25:36.724Z,47.84
2023-05-02T11:41:09.404Z,46.18
2023-05-02T11:43:53.640Z,48.07
2023-05-02T11:46:21.406Z,45.22
2023-05-02T11:55:13.571Z,45.83
2023-05-02T12:00:56.349Z,46.29
2023-05-02T12:03:29.160Z,47.38
2023-05-02T12:12:51.374Z,44.76
2023-05-02T12:31:18.441Z,44.12
2023-05-02T12:45:46.386Z,43.58
2023-05-02T12:52:05.411Z,44.10
2023-05-02T13:01:32.589Z,41.85
2023-05-02T13:07:18.400Z,41.32
2023-05-02T13:12:37.959Z,40.47
2023-05-02T13:15:29.612Z,38.79
2023-05-02T13:18:40.844Z,38.54
2023-05-02T13:24:00.973Z,37.12
2023-05-02T13:33:08.266Z,36.12
2023-05-02T13:38:23.084Z,37.46
2023-05-02T13:41:52.472Z,38.61
2023-05-02T13:47:59.550Z,39.01
2023-05-02T13:53:23.348Z,40.99
2023-05-02T14:02:36.651Z,38.41
2023-05-02T14:05:06.545Z,36.95
2023-05-02T14:07:44.132Z,37.01
2023-05-02T14:10:58.968Z,37.29
2023-05-02T14:13:36.468Z,38.29
2023-05-02T14:16:03.829Z,36.15
2023-05-02T14:18:42.300Z,36.31
2023-05-02T14:21:23.803Z,37.40
2023-05-02T14:24:02.613Z,36.85
2023-05-02T14:26:29.637Z,36.80
2023-05-02T14:29:09.596Z,36.09
2023-05-02T14:34:34.709Z,34.95
2023-05-02T14:37:11.024Z,37.41
2023-05-02T14:39:37.949Z,38.74
2023-05-02T14:44:52.591Z,38.72
2023-05-02T14:47:26.555Z,39.68
2023-05-02T14:49:56.446Z,40.69
2023-05-02T14:52:29.634Z,40.47
2023-05-02T14:55:02.590Z,40.18
2023-05-02T14:57:38.569Z,41.23
2023-05-02T15:00:16.669Z,39.89
2023-05-02T15:03:28.014Z,40.72
2023-05-02T15:08:51.485Z,40.71
2023-05-02T15:12:24.650Z,40.70
2023-05-02T15:23:17.430Z,43.13
2023-05-02T15:25:51.519Z,43.61
2023-05-02T15:28:18.522Z,43.46
2023-05-02T15:34:23.655Z,43.56
2023-05-02T15:36:54.023Z,45.20
2023-05-02T15:39:31.500Z,44.32
2023-05-02T15:42:14.918Z,44.57
2023-05-02T15:47:26.583Z,44.77
2023-05-02T15:56:19.439Z,45.72
2023-05-02T15:58:55.751Z,45.28
2023-05-02T16:01:30.811Z,45.00
2023-05-02T16:04:35.617Z,46.44
2023-05-02T16:07:13.052Z,46.90
2023-05-02T16:09:48.514Z,46.51
2023-05-02T16:12:15.560Z,46.65
2023-05-02T16:14:49.652Z,45.10
2023-05-02T16:17:19.635Z,44.68
2023-05-02T16:22:40.551Z,45.41
2023-05-02T16:25:09.791Z,46.09
2023-05-02T16:27:51.149Z,46.00
2023-05-02T16:30:37.764Z,45.42
2023-05-02T16:33:13.663Z,46.43
2023-05-02T16:35:43.811Z,46.04
2023-05-02T16:38:25.482Z,45.43
2023-05-02T16:40:54.993Z,45.80
2023-05-02T16:50:25.569Z,47.33
2023-05-02T16:52:55.307Z,46.32
2023-05-02T16:55:49.453Z,46.54
2023-05-02T16:58:21.668Z,44.18
2023-05-02T17:01:14.653Z,46.51
2023-05-02T17:04:06.663Z,46.20
2023-05-02T17:06:33.799Z,45.60
2023-05-02T17:09:17.682Z,45.75
2023-05-02T17:11:44.893Z,46.87
2023-05-02T17:14:22.357Z,48.09
2023-05-02T17:16:56.613Z,47.52
2023-05-02T17:19:26.572Z,48.89
2023-05-02T17:22:04.709Z,50.38
2023-05-02T17:24:32.486Z,50.32
2023-05-02T17:27:06.670Z,50.35
2023-05-02T17:29:34.257Z,50.76
2023-05-02T17:32:08.560Z,51.24
2023-05-02T17:34:40.352Z,51.36
2023-05-02T17:37:14.661Z,51.19
2023-05-02T17:39:42.466Z,51.21
2023-05-02T17:42:09.656Z,51.92
2023-05-02T17:44:43.696Z,53.35
2023-05-02T17:47:24.251Z,51.42
2023-05-02T17:49:53.458Z,51.10
2023-05-02T17:52:27.677Z,51.94
2023-05-02T17:55:03.162Z,52.05
2023-05-02T17:57:36.616Z,52.33
2023-05-02T18:00:14.736Z,51.13
2023-05-02T18:02:43.543Z,50.82
2023-05-02T18:05:26.689Z,51.18
2023-05-02T18:07:55.351Z,50.96
2023-05-02T18:10:31.338Z,50.90
2023-05-02T18:12:58.610Z,50.46
2023-05-02T18:15:34.655Z,48.91
2023-05-02T18:18:08.744Z,49.32
2023-05-02T18:20:41.494Z,50.15
2023-05-02T18:23:17.706Z,49.83
2023-05-02T18:25:45.414Z,50.10
2023-05-02T18:28:19.688Z,51.58
2023-05-02T18:30:46.874Z,51.99
2023-05-02T18:33:23.639Z,51.38
2023-05-02T18:35:51.067Z,52.14
2023-05-02T18:38:24.707Z,51.53
2023-05-02T18:40:51.990Z,52.32
2023-05-02T18:43:25.648Z,51.81
2023-05-02T18:45:53.003Z,52.17
2023-05-02T18:48:29.673Z,52.98
2023-05-02T18:51:03.629Z,52.47
2023-05-02T18:53:37.697Z,54.01
2023-05-02T18:56:12.924Z,52.96
2023-05-02T18:58:46.742Z,53.12
2023-05-02T19:01:15.339Z,54.35
2023-05-02T19:03:46.325Z,54.77
2023-05-02T19:09:20.693Z,54.38
2023-05-02T19:11:54.762Z,55.31
2023-05-02T19:14:22.300Z,55.53
2023-05-02T19:16:57.732Z,55.51
2023-05-02T19:19:34.695Z,56.54
2023-05-02T19:22:08.646Z,56.35
2023-05-02T19:24:39.183Z,56.50
2023-05-02T19:27:17.566Z,56.74
2023-05-02T19:29:44.897Z,57.16
2023-05-02T19:32:40.709Z,56.48
2023-05-02T19:35:14.256Z,57.49
2023-05-02T19:37:48.754Z,57.57
2023-05-02T19:40:16.916Z,58.67
2023-05-02T19:42:47.435Z,58.86
2023-05-02T19:51:05.655Z,59.65
2023-05-02T19:53:45.652Z,60.56
2023-05-02T19:56:19.897Z,60.44
2023-05-02T19:58:53.825Z,61.44
2023-05-02T20:01:27.651Z,61.34
2023-05-02T20:03:55.280Z,62.02
2023-05-02T20:06:35.759Z,62.41
2023-05-02T20:09:05.581Z,62.67
2023-05-02T20:11:39.684Z,62.75
2023-05-02T20:14:09.552Z,62.85
2023-05-02T20:16:43.708Z,62.79
2023-05-02T20:19:11.408Z,63.71
2023-05-02T20:21:54.472Z,64.36
2023-05-02T20:24:22.514Z,64.30
2023-05-02T20:26:58.400Z,64.19
2023-05-02T20:29:25.804Z,64.45
2023-05-02T20:34:45.757Z,64.64
2023-05-02T20:37:22.642Z,65.36
2023-05-02T20:39:56.907Z,65.76
2023-05-02T20:42:33.680Z,65.80
2023-05-02T20:45:09.947Z,66.27
2023-05-02T20:47:46.680Z,66.48
2023-05-02T20:50:17.671Z,66.37
2023-05-02T20:58:29.541Z,66.51
2023-05-02T21:01:06.288Z,67.07
2023-05-02T21:03:48.207Z,67.11
2023-05-02T21:06:29.424Z,67.50
2023-05-02T21:08:56.941Z,67.65
2023-05-02T21:11:33.786Z,68.05
2023-05-02T21:14:01.191Z,68.11
2023-05-02T21:16:38.418Z,68.77
2023-05-02T21:19:09.152Z,68.88
2023-05-02T21:21:48.686Z,69.07
2023-05-02T21:24:16.269Z,70.01
2023-05-02T21:27:22.905Z,69.65
2023-05-02T21:29:50.559Z,70.73
2023-05-02T21:32:28.616Z,70.97
2023-05-02T21:34:58.344Z,71.21
2023-05-02T21:37:32.842Z,71.26
2023-05-02T21:40:10.115Z,70.98
2023-05-02T21:42:44.859Z,71.19
2023-05-02T21:45:22.168Z,71.13
2023-05-02T21:47:55.894Z,71.53
2023-05-02T21:50:38.095Z,71.54
2023-05-02T21:55:58.742Z,72.82
2023-05-02T21:58:32.793Z,73.08
2023-05-02T22:01:03.077Z,72.52
2023-05-02T22:03:37.898Z,72.93
2023-05-02T22:06:18.767Z,73.51
2023-05-02T22:08:46.377Z,72.98
2023-05-02T22:11:23.831Z,73.92
2023-05-02T22:13:51.513Z,73.81
2023-05-02T22:16:27.900Z,73.94
2023-05-02T22:18:55.424Z,74.24
2023-05-02T22:21:29.767Z,73.93
2023-05-02T22:24:03.785Z,74.47
2023-05-02T22:26:30.814Z,74.52
2023-05-02T22:35:15.629Z,73.94
2023-05-02T22:37:51.784Z,75.56
2023-05-02T22:40:25.773Z,74.93
2023-05-02T22:42:52.736Z,74.94
2023-05-02T22:45:26.727Z,75.48
2023-05-02T22:58:11.814Z,74.10
2023-05-02T23:00:39.007Z,75.19
2023-05-02T23:03:13.878Z,75.49
2023-05-02T23:11:57.833Z,75.50
2023-05-02T23:14:31.794Z,75.75
2023-05-02T23:17:03.204Z,76.07
2023-05-02T23:19:36.807Z,75.56
2023-05-02T23:22:10.900Z,75.61
2023-05-02T23:24:52.118Z,76.16
2023-05-02T23:27:46.100Z,75.80
2023-05-02T23:33:59.290Z,75.97
2023-05-02T23:36:27.481Z,75.75
2023-05-02T23:39:04.777Z,76.04
2023-05-02T23:41:49.154Z,76.33
2023-05-02T23:44:22.824Z,76.25
2023-05-02T23:46:58.837Z,76.52
2023-05-02T23:49:26.932Z,76.88
2023-05-02T23:52:03.659Z,77.07
2023-05-02T23:54:32.023Z,78.12
2023-05-02T23:57:23.878Z,77.45
2023-05-02T23:59:57.896Z,78.37
